Time;durP1;ratioP1;P1;durP2;ratioP2;P2;SDS_P1;SDS_P2;PMS_P1;PMS_P2;Temp;Humidity;BMP_temperature;BMP_pressure;BME280_temperature;BME280_humidity;BME280_pressure;Samples;Min_cycle;Max_cycle;Signal;HPM_P1;HPM_P2
2021/09/07 00:00:20;;;;;;;34.25;22.00;;;;;;;14.72;91.94;102585.03;6180214;23;20031;-76
2021/09/07 00:02:45;;;;;;;35.58;21.33;;;;;;;14.71;91.82;102585.00;6184617;23;20463;-75
2021/09/07 00:05:12;;;;;;;35.28;21.42;;;;;;;14.69;92.02;102590.25;6185209;23;20009;-77
2021/09/07 00:07:38;;;;;;;40.15;21.13;;;;;;;14.67;91.85;102584.88;6184787;23;20005;-77
2021/09/07 00:10:06;;;;;;;37.40;23.33;;;;;;;14.63;91.95;102584.75;6185242;23;20364;-77
2021/09/07 00:12:51;;;;;;;33.88;21.27;;;;;;;14.59;91.83;102582.84;6159292;23;20020;-77
2021/09/07 00:15:37;;;;;;;38.85;21.15;;;;;;;14.56;91.75;102582.78;6184744;23;20001;-76
2021/09/07 00:18:03;;;;;;;35.67;20.92;;;;;;;14.54;91.86;102579.16;6183932;23;20372;-76
2021/09/07 00:20:28;;;;;;;40.55;23.60;;;;;;;14.50;92.17;102572.88;6184936;23;20021;-78
2021/09/07 00:22:54;;;;;;;38.58;21.90;;;;;;;14.49;92.31;102571.09;6184206;23;20009;-78
2021/09/07 00:25:19;;;;;;;37.75;21.15;;;;;;;14.49;92.72;102572.00;6185738;23;20016;-75
2021/09/07 00:27:45;;;;;;;35.15;21.17;;;;;;;14.50;92.45;102572.88;6186204;23;20007;-77
2021/09/07 00:30:11;;;;;;;39.85;22.58;;;;;;;14.48;92.86;102570.19;6160272;23;20433;-77
2021/09/07 00:32:36;;;;;;;40.13;23.48;;;;;;;14.46;92.96;102571.91;6185844;23;20001;-76
2021/09/07 00:35:02;;;;;;;43.08;24.40;;;;;;;14.43;93.58;102565.63;6186434;23;20008;-78
2021/09/07 00:37:27;;;;;;;42.33;24.80;;;;;;;14.41;93.37;102562.06;6186106;23;20085;-76
2021/09/07 00:39:53;;;;;;;41.55;23.33;;;;;;;14.41;93.46;102568.22;6185919;23;20008;-76
2021/09/07 00:42:18;;;;;;;40.33;23.23;;;;;;;14.40;93.39;102558.47;6186610;23;20009;-78
2021/09/07 00:44:44;;;;;;;40.45;23.38;;;;;;;14.40;93.36;102555.84;6185960;23;20439;-76
2021/09/07 00:47:10;;;;;;;41.47;21.98;;;;;;;14.40;93.46;102558.47;6186507;23;20073;-79
2021/09/07 00:49:43;;;;;;;44.72;24.98;;;;;;;14.39;93.58;102554.06;6186607;23;20036;-77
2021/09/07 00:52:10;;;;;;;42.30;23.98;;;;;;;14.38;93.62;102557.56;6186541;23;20384;-77
2021/09/07 00:54:38;;;;;;;37.92;23.00;;;;;;;14.34;94.04;102558.31;6186014;23;20016;-76
2021/09/07 00:57:25;;;;;;;42.10;23.58;;;;;;;14.30;93.73;102546.75;6186060;23;20001;-77
2021/09/07 01:00:08;;;;;;;39.80;22.23;;;;;;;14.30;93.55;102551.16;6185553;23;20005;-76
2021/09/07 01:02:33;;;;;;;37.23;22.87;;;;;;;14.27;94.00;102554.59;6176413;23;20009;-78
2021/09/07 01:04:59;;;;;;;43.35;23.77;;;;;;;14.25;94.02;102550.13;6186144;23;20324;-77
2021/09/07 01:07:24;;;;;;;39.72;23.40;;;;;;;14.22;94.25;102550.91;6186115;23;20032;-77
2021/09/07 01:09:50;;;;;;;43.33;23.15;;;;;;;14.20;94.18;102552.59;6185605;23;20067;-76
2021/09/07 01:12:19;;;;;;;40.00;23.55;;;;;;;14.18;94.10;102541.09;6186118;23;20104;-77
2021/09/07 01:14:45;;;;;;;48.72;24.52;;;;;;;14.15;nan;102543.66;6185902;23;20095;-76
2021/09/07 01:17:13;;;;;;;43.92;24.02;;;;;;;14.14;94.90;102536.56;6185549;23;20040;-77
2021/09/07 01:19:39;;;;;;;43.50;24.08;;;;;;;14.12;94.99;102544.47;6159844;23;20100;-76
2021/09/07 01:22:04;;;;;;;45.75;24.27;;;;;;;14.11;94.80;102547.97;6185522;23;20048;-78
2021/09/07 01:24:30;;;;;;;41.78;22.10;;;;;;;14.10;94.77;102537.31;6186572;23;20009;-76
2021/09/07 01:26:56;;;;;;;42.85;23.98;;;;;;;14.08;95.09;102542.59;6185673;23;20079;-77
2021/09/07 01:29:22;;;;;;;38.95;23.05;;;;;;;14.08;95.26;102547.88;6185786;23;20013;-76
2021/09/07 01:31:47;;;;;;;43.15;23.98;;;;;;;14.06;95.28;102544.28;6185847;23;20009;-76
2021/09/07 01:34:21;;;;;;;43.15;24.95;;;;;;;14.05;95.54;102544.22;6184663;23;20245;-77
2021/09/07 01:37:02;;;;;;;46.85;25.33;;;;;;;14.04;95.62;102537.13;6186007;23;20433;-78
2021/09/07 01:39:28;;;;;;;42.67;24.75;;;;;;;14.04;95.49;102539.78;6186123;23;20008;-78
2021/09/07 01:41:54;;;;;;;47.20;26.55;;;;;;;14.04;95.65;102537.13;6159552;23;20103;-77
2021/09/07 01:44:21;;;;;;;48.35;26.65;;;;;;;14.04;95.61;102535.41;6184971;23;20045;-77
2021/09/07 01:46:46;;;;;;;49.08;25.83;;;;;;;14.03;95.52;102533.59;6184756;23;20005;-77
2021/09/07 01:49:33;;;;;;;51.55;27.23;;;;;;;14.03;95.70;102532.72;6186277;23;20011;-78
2021/09/07 01:52:12;;;;;;;45.35;25.20;;;;;;;14.01;95.46;102530.00;6185976;23;20013;-77
2021/09/07 01:55:00;;;;;;;46.30;26.00;;;;;;;14.00;95.51;102538.81;6185895;23;20017;-77
2021/09/07 01:57:47;;;;;;;50.67;26.20;;;;;;;14.02;95.71;102541.50;6184790;23;20009;-77
2021/09/07 02:00:33;;;;;;;46.92;25.38;;;;;;;13.99;95.92;102544.94;6180209;23;20013;-76
2021/09/07 02:03:20;;;;;;;54.15;26.90;;;;;;;13.97;96.12;102544.00;6185936;23;20464;-77
2021/09/07 02:05:45;;;;;;;48.63;25.55;;;;;;;13.93;96.19;102537.72;6185071;23;20384;-77
2021/09/07 02:08:11;;;;;;;54.35;26.45;;;;;;;13.92;96.16;102535.03;6185541;23;20056;-78
2021/09/07 02:10:36;;;;;;;53.85;26.25;;;;;;;13.96;95.85;102539.56;6185637;23;20004;-76
2021/09/07 02:13:02;;;;;;;50.88;27.58;;;;;;;13.96;95.94;102543.09;6186067;23;20012;-76
2021/09/07 02:15:29;;;;;;;57.75;28.73;;;;;;;13.99;96.01;102544.94;6185543;23;20005;-76
2021/09/07 02:17:55;;;;;;;56.45;28.80;;;;;;;13.97;95.63;102544.91;6186105;23;20442;-76
2021/09/07 02:20:21;;;;;;;46.83;27.33;;;;;;;13.97;95.56;102544.00;6185547;23;20021;-77
2021/09/07 02:22:46;;;;;;;50.90;28.08;;;;;;;13.94;95.69;102539.50;6185354;23;20031;-77
2021/09/07 02:25:12;;;;;;;54.00;28.38;;;;;;;13.92;95.53;102537.69;6185719;23;20012;-76
2021/09/07 02:27:38;;;;;;;52.33;28.08;;;;;;;13.89;95.64;102532.28;6185809;23;20433;-77
2021/09/07 02:30:05;;;;;;;56.63;29.63;;;;;;;13.89;95.77;102530.56;6185718;23;20005;-76
2021/09/07 02:32:30;;;;;;;59.17;29.00;;;;;;;13.86;96.02;102533.09;6184911;23;20091;-77
2021/09/07 02:34:57;;;;;;;53.80;29.90;;;;;;;13.84;95.95;102532.16;6184959;23;20037;-76
2021/09/07 02:37:22;;;;;;;52.25;27.30;;;;;;;13.82;96.01;102534.75;6185968;23;20069;-78
2021/09/07 02:39:48;;;;;;;56.95;28.83;;;;;;;13.83;96.00;102533.88;6185853;23;20009;-75
2021/09/07 02:42:13;;;;;;;54.67;28.10;;;;;;;13.85;96.33;102533.03;6185764;23;20008;-77
2021/09/07 02:44:39;;;;;;;49.85;27.25;;;;;;;13.85;96.19;102533.03;6185956;23;20429;-77
2021/09/07 02:47:04;;;;;;;50.90;28.95;;;;;;;13.86;95.76;102540.13;6184282;23;20433;-76
2021/09/07 02:49:29;;;;;;;59.70;28.90;;;;;;;13.82;95.88;102529.47;6185580;23;20004;-77
2021/09/07 02:51:55;;;;;;;56.03;29.60;;;;;;;13.81;95.82;102535.59;6185429;23;20005;-77
2021/09/07 02:54:21;;;;;;;59.72;29.33;;;;;;;13.79;96.06;102536.41;6185800;23;20356;-78
2021/09/07 02:56:46;;;;;;;56.22;29.55;;;;;;;13.76;95.80;102529.28;6185627;23;20035;-78
2021/09/07 02:59:11;;;;;;;59.17;29.83;;;;;;;13.74;96.22;102530.06;6185493;23;20047;-77
2021/09/07 03:01:37;;;;;;;56.03;28.40;;;;;;;13.70;96.44;102529.09;6180016;23;20076;-77
2021/09/07 03:04:03;;;;;;;55.67;28.00;;;;;;;13.67;96.22;102528.97;6160003;23;20063;-78
2021/09/07 03:06:28;;;;;;;53.97;28.80;;;;;;;13.62;96.23;102527.97;6185649;23;20028;-75
2021/09/07 03:08:54;;;;;;;54.28;27.35;;;;;;;13.60;96.34;102527.00;6186114;23;20031;-77
2021/09/07 03:11:19;;;;;;;56.28;29.60;;;;;;;13.56;96.43;102525.13;6184818;23;20013;-76
2021/09/07 03:13:45;;;;;;;59.33;30.25;;;;;;;13.52;96.47;102521.47;6185453;23;20416;-76
2021/09/07 03:16:10;;;;;;;53.50;27.75;;;;;;;13.51;96.78;102522.34;6185083;23;20015;-76
2021/09/07 03:18:36;;;;;;;54.60;28.88;;;;;;;13.48;96.80;102516.94;6184513;23;20009;-76
2021/09/07 03:21:01;;;;;;;55.90;28.58;;;;;;;13.44;96.86;102515.97;6184626;23;20024;-75
2021/09/07 03:23:26;;;;;;;57.60;29.45;;;;;;;13.43;96.74;102516.81;6185198;23;20019;-77
2021/09/07 03:25:52;;;;;;;54.63;29.17;;;;;;;13.41;96.24;102515.84;6184939;23;20428;-78
2021/09/07 03:28:21;;;;;;;57.15;28.63;;;;;;;13.40;96.61;102516.72;6184629;23;19997;-76
2021/09/07 03:30:47;;;;;;;63.85;29.20;;;;;;;13.39;96.47;102512.25;6185193;23;20326;-77
2021/09/07 03:33:13;;;;;;;52.22;29.05;;;;;;;13.38;96.73;102515.75;6184742;23;20036;-76
2021/09/07 03:35:38;;;;;;;60.10;29.77;;;;;;;13.37;96.43;102513.94;6184569;23;20075;-77
2021/09/07 03:38:04;;;;;;;53.28;29.33;;;;;;;13.36;96.31;102506.88;6185381;23;20005;-77
2021/09/07 03:40:29;;;;;;;60.47;28.98;;;;;;;13.33;96.35;102509.38;6184642;23;20005;-76
2021/09/07 03:43:14;;;;;;;57.75;28.80;;;;;;;13.31;96.08;102508.44;6184589;23;20001;-77
2021/09/07 03:45:41;;;;;;;58.00;28.95;;;;;;;13.28;96.21;102511.88;6184272;23;20021;-77
2021/09/07 03:48:06;;;;;;;55.17;27.52;;;;;;;13.27;96.05;102517.13;6184944;23;20006;-76
2021/09/07 03:50:32;;;;;;;60.08;29.15;;;;;;;13.25;96.17;102518.81;6184863;23;20013;-78
2021/09/07 03:52:57;;;;;;;55.30;28.23;;;;;;;13.22;96.32;102514.31;6184356;23;20051;-77
2021/09/07 03:55:43;;;;;;;65.30;30.17;;;;;;;13.22;96.59;102506.38;6184989;23;20009;-77
2021/09/07 03:58:10;;;;;;;64.38;32.17;;;;;;;13.24;96.88;102514.38;6185682;23;20368;-78
2021/09/07 04:00:35;;;;;;;62.92;31.58;;;;;;;13.22;97.40;102514.31;6181765;23;20005;-76
2021/09/07 04:03:01;;;;;;;64.50;31.92;;;;;;;13.24;97.65;102504.72;6186373;23;20324;-77
2021/09/07 04:05:26;;;;;;;60.08;31.13;;;;;;;13.25;97.47;102508.25;6186701;23;20008;-75
2021/09/07 04:07:52;;;;;;;64.05;32.90;;;;;;;13.26;97.77;102505.63;6187500;23;20013;-77
2021/09/07 04:10:18;;;;;;;64.00;32.10;;;;;;;13.28;97.73;102508.31;6187029;23;20005;-77
2021/09/07 04:12:43;;;;;;;64.63;31.60;;;;;;;13.28;97.58;102514.53;6186351;23;20019;-78
2021/09/07 04:15:09;;;;;;;62.25;30.30;;;;;;;13.28;97.65;102508.31;6187051;23;20001;-77
2021/09/07 04:17:35;;;;;;;57.88;30.48;;;;;;;13.25;97.39;102503.88;6186213;23;20001;-76
2021/09/07 04:20:00;;;;;;;61.15;30.52;;;;;;;13.24;97.18;102507.34;6186149;23;20095;-77
2021/09/07 04:22:26;;;;;;;56.17;28.70;;;;;;;13.24;96.99;102506.44;6186839;23;20136;-77
2021/09/07 04:24:51;;;;;;;58.60;29.65;;;;;;;13.22;97.12;102505.50;6186613;23;20011;-76
2021/09/07 04:27:17;;;;;;;52.08;28.33;;;;;;;13.21;97.10;102511.63;6186680;23;20385;-76
2021/09/07 04:29:44;;;;;;;53.67;27.33;;;;;;;13.21;96.75;102514.28;6187214;23;20013;-76
2021/09/07 04:32:10;;;;;;;56.42;29.15;;;;;;;13.20;96.68;102515.13;6186109;23;20000;-76
2021/09/07 04:34:35;;;;;;;58.95;29.75;;;;;;;13.18;96.51;102506.25;6184857;23;20009;-77
2021/09/07 04:37:00;;;;;;;59.17;30.45;;;;;;;13.15;96.61;102521.16;6186556;23;19997;-78
2021/09/07 04:39:26;;;;;;;68.70;30.70;;;;;;;13.13;96.34;102519.31;6186553;23;20008;-77
2021/09/07 04:41:51;;;;;;;61.33;30.83;;;;;;;13.14;97.00;102532.59;6185775;23;20009;-78
2021/09/07 04:44:20;;;;;;;76.55;34.20;;;;;;;13.13;97.35;102525.50;6186245;23;20033;-77
2021/09/07 04:46:45;;;;;;;67.68;32.92;;;;;;;13.16;97.44;102530.88;6186527;23;20005;-75
2021/09/07 04:49:10;;;;;;;66.65;33.58;;;;;;;13.20;98.04;102529.25;6186094;23;20047;-76
2021/09/07 04:51:36;;;;;;;74.63;34.95;;;;;;;13.26;97.99;102525.91;6185611;23;20032;-77
2021/09/07 04:54:01;;;;;;;79.35;35.35;;;;;;;13.31;98.51;102524.31;6186538;23;20008;-77
2021/09/07 04:56:27;;;;;;;82.30;37.70;;;;;;;13.38;98.63;102522.81;6186100;23;20005;-77
2021/09/07 04:58:52;;;;;;;75.57;36.20;;;;;;;13.43;98.75;102524.72;6186449;23;20009;-78
2021/09/07 05:01:19;;;;;;;76.70;36.83;;;;;;;13.50;98.68;102531.13;6181405;23;20341;-77
2021/09/07 05:03:44;;;;;;;76.72;36.20;;;;;;;13.56;98.75;102526.00;6186286;23;20008;-76
2021/09/07 05:06:09;;;;;;;64.80;34.67;;;;;;;13.64;98.41;102534.19;6185568;23;20079;-76
2021/09/07 05:08:55;;;;;;;67.10;35.53;;;;;;;13.70;98.21;102528.19;6185549;23;20008;-76
2021/09/07 05:11:20;;;;;;;65.15;33.65;;;;;;;13.72;98.14;102524.75;6186089;23;20386;-76
2021/09/07 05:13:46;;;;;;;73.18;34.90;;;;;;;13.77;97.90;102524.91;6186568;23;20032;-77
2021/09/07 05:16:11;;;;;;;66.80;33.50;;;;;;;13.82;97.88;102529.47;6185919;23;20028;-77
2021/09/07 05:18:36;;;;;;;62.00;32.40;;;;;;;13.85;97.94;102525.09;6186166;23;20001;-76
2021/09/07 05:21:02;;;;;;;59.65;32.42;;;;;;;13.89;97.55;102519.97;6184014;23;20099;-76
2021/09/07 05:23:27;;;;;;;62.35;32.72;;;;;;;13.96;97.64;102523.69;6184572;23;20012;-75
2021/09/07 05:25:53;;;;;;;57.53;31.88;;;;;;;14.02;97.32;102526.50;6183640;23;20077;-75
2021/09/07 05:28:18;;;;;;;62.08;31.45;;;;;;;14.10;97.38;102530.28;6183705;23;20424;-76
2021/09/07 05:30:44;;;;;;;60.08;31.63;;;;;;;14.19;97.50;102529.66;6184590;23;20004;-76
2021/09/07 05:33:09;;;;;;;64.82;32.65;;;;;;;14.26;97.48;102531.63;6183509;23;20005;-79
2021/09/07 05:35:35;;;;;;;66.53;34.33;;;;;;;14.34;97.16;102530.09;6185142;23;20376;-76
2021/09/07 05:38:03;;;;;;;58.70;32.13;;;;;;;14.43;96.79;102524.16;6184928;23;20105;-76
2021/09/07 05:40:28;;;;;;;59.03;31.17;;;;;;;14.52;96.78;102525.28;6160269;23;20005;-75
2021/09/07 05:42:53;;;;;;;62.95;32.85;;;;;;;14.61;96.72;102538.72;6186269;23;20009;-76
2021/09/07 05:45:19;;;;;;;65.53;32.22;;;;;;;14.70;96.54;102533.72;6159363;23;20317;-77
2021/09/07 05:47:44;;;;;;;64.85;32.75;;;;;;;14.78;96.15;102533.94;6185582;23;20005;-77
2021/09/07 05:50:11;;;;;;;56.30;31.85;;;;;;;14.89;95.75;102531.56;6185693;23;20015;-77
2021/09/07 05:52:36;;;;;;;62.20;32.08;;;;;;;14.99;95.85;102537.16;6184683;23;20337;-78
2021/09/07 05:55:23;;;;;;;58.95;31.15;;;;;;;15.09;96.04;102538.28;6185587;23;20013;-75
2021/09/07 05:57:52;;;;;;;52.92;31.30;;;;;;;15.17;95.35;102536.69;6185816;23;20013;-77
2021/09/07 06:00:17;;;;;;;54.15;30.55;;;;;;;15.27;95.87;102537.81;6180353;23;20314;-76
2021/09/07 06:03:08;;;;;;;61.92;33.38;;;;;;;15.35;95.83;102530.06;6185478;23;20012;-76
2021/09/07 06:05:34;;;;;;;56.63;31.15;;;;;;;15.44;95.28;102535.59;6158898;23;20005;-77
2021/09/07 06:07:59;;;;;;;60.03;32.10;;;;;;;15.56;94.18;102534.06;6185075;23;20005;-77
2021/09/07 06:10:25;;;;;;;60.22;33.20;;;;;;;15.67;92.50;102527.25;6185453;23;20060;-76
2021/09/07 06:12:50;;;;;;;59.13;33.28;;;;;;;15.78;92.99;102530.16;6185979;23;20001;-77
2021/09/07 06:15:16;;;;;;;58.20;32.17;;;;;;;15.90;93.50;102530.47;6185119;23;20015;-77
2021/09/07 06:17:41;;;;;;;57.42;33.03;;;;;;;16.04;93.37;102544.03;6158270;23;20346;-76
2021/09/07 06:20:07;;;;;;;63.28;32.47;;;;;;;16.18;93.85;102547.88;6185493;23;20017;-77
2021/09/07 06:22:33;;;;;;;65.00;32.47;;;;;;;16.31;90.94;102534.84;6184905;23;20001;-77
2021/09/07 06:24:58;;;;;;;57.55;30.48;;;;;;;16.46;89.71;102536.91;6185257;23;20433;-77
2021/09/07 06:27:24;;;;;;;55.92;31.85;;;;;;;16.61;89.29;102530.97;6184821;23;20017;-77
2021/09/07 06:29:49;;;;;;;57.17;32.75;;;;;;;16.75;89.86;102533.88;6185449;23;20016;-77
2021/09/07 06:32:16;;;;;;;150.00;38.88;;;;;;;16.87;88.83;102542.06;6185239;23;20499;-76
2021/09/07 06:34:43;;;;;;;79.30;33.13;;;;;;;17.00;88.67;102527.28;6185287;23;20001;-77
2021/09/07 06:37:08;;;;;;;71.63;33.15;;;;;;;17.13;89.14;102531.94;6179346;23;20009;-77
2021/09/07 06:39:34;;;;;;;57.65;30.50;;;;;;;17.21;85.91;102525.84;6184048;23;20016;-76
2021/09/07 06:41:59;;;;;;;51.92;31.85;;;;;;;17.31;83.84;102526.00;6184824;23;20011;-76
2021/09/07 06:44:25;;;;;;;53.88;30.58;;;;;;;17.42;85.80;102535.94;6158855;23;20000;-76
2021/09/07 06:46:50;;;;;;;53.80;30.83;;;;;;;17.52;84.16;102536.06;6185092;23;20012;-76
2021/09/07 06:49:16;;;;;;;51.83;29.77;;;;;;;17.61;84.11;102534.44;6185452;23;20447;-78
2021/09/07 06:51:41;;;;;;;49.97;28.88;;;;;;;17.64;85.05;102542.47;6185178;23;20013;-76
2021/09/07 06:54:07;;;;;;;47.40;29.80;;;;;;;17.66;84.42;102538.94;6184209;23;20008;-76
2021/09/07 06:56:33;;;;;;;51.20;31.00;;;;;;;17.69;84.58;102540.75;6159384;23;20004;-77
2021/09/07 06:58:58;;;;;;;50.40;30.08;;;;;;;17.74;83.69;102540.81;6185333;23;20008;-77
2021/09/07 07:01:23;;;;;;;50.22;30.35;;;;;;;17.79;83.07;102524.03;6180061;23;20009;-77
2021/09/07 07:03:49;;;;;;;50.15;29.98;;;;;;;17.86;84.15;102547.22;6185716;23;20005;-75
2021/09/07 07:06:14;;;;;;;48.40;29.75;;;;;;;17.93;80.72;102536.66;6185232;23;20009;-76
2021/09/07 07:08:40;;;;;;;49.40;29.92;;;;;;;17.96;80.68;102526.03;6185265;23;19997;-76
2021/09/07 07:11:25;;;;;;;54.30;30.88;;;;;;;17.96;80.51;102537.63;6185295;23;20015;-77
2021/09/07 07:13:50;;;;;;;51.55;29.10;;;;;;;17.93;82.09;102536.66;6185747;23;20417;-74
2021/09/07 07:16:16;;;;;;;48.38;29.38;;;;;;;17.87;81.28;102538.34;6184892;23;20028;-77
2021/09/07 07:18:41;;;;;;;51.58;29.63;;;;;;;17.84;81.13;102535.63;6184973;23;19997;-77
2021/09/07 07:21:07;;;;;;;48.92;29.50;;;;;;;17.82;80.11;102542.72;6185273;23;20067;-77
2021/09/07 07:23:32;;;;;;;52.55;30.35;;;;;;;17.85;79.55;102534.78;6184743;23;20337;-76
2021/09/07 07:25:57;;;;;;;52.38;29.58;;;;;;;17.93;79.05;102536.66;6184246;23;20332;-75
2021/09/07 07:28:23;;;;;;;45.80;29.20;;;;;;;18.08;78.28;102536.88;6184535;23;20001;-77
2021/09/07 07:31:08;;;;;;;52.30;29.05;;;;;;;18.22;78.64;102533.47;6185845;23;20005;-75
2021/09/07 07:33:34;;;;;;;51.00;29.48;;;;;;;18.39;78.17;102536.34;6187405;23;20424;-75
2021/09/07 07:35:59;;;;;;;49.35;27.77;;;;;;;18.53;77.38;102535.59;6188133;23;20054;-75
2021/09/07 07:38:24;;;;;;;50.85;28.77;;;;;;;18.65;77.22;102539.28;6187472;23;20072;-78
2021/09/07 07:40:50;;;;;;;49.33;28.27;;;;;;;18.76;75.80;102531.38;6188758;23;20004;-77
2021/09/07 07:43:17;;;;;;;48.10;27.85;;;;;;;18.86;75.42;102542.16;6187630;23;20172;-76
2021/09/07 07:45:44;;;;;;;46.00;28.77;;;;;;;18.99;74.83;102539.63;6188397;23;20488;-76
2021/09/07 07:48:29;;;;;;;50.80;27.95;;;;;;;19.08;74.44;102538.81;6188167;23;20328;-76
2021/09/07 07:50:55;;;;;;;52.65;28.23;;;;;;;19.13;73.67;102537.97;6188821;23;20384;-76
2021/09/07 07:53:40;;;;;;;42.90;26.83;;;;;;;19.27;73.01;102535.41;6188357;23;20013;-76
2021/09/07 07:56:07;;;;;;;53.22;30.13;;;;;;;19.33;74.62;102551.47;6188289;23;20367;-77
2021/09/07 07:58:32;;;;;;;48.88;28.15;;;;;;;19.38;73.00;102548.84;6188461;23;19997;-77
2021/09/07 08:01:18;;;;;;;45.28;28.63;;;;;;;19.49;72.26;102543.56;6183125;23;20063;-76
2021/09/07 08:03:46;;;;;;;47.33;26.92;;;;;;;19.60;71.89;102544.56;6188174;23;20020;-77
2021/09/07 08:06:33;;;;;;;43.42;26.95;;;;;;;19.73;71.61;102550.84;6187819;23;20009;-77
2021/09/07 08:09:18;;;;;;;48.17;28.42;;;;;;;19.92;71.28;102549.19;6187542;23;20084;-76
2021/09/07 08:11:43;;;;;;;47.28;26.88;;;;;;;20.09;71.01;102543.94;6188704;23;20012;-76
2021/09/07 08:14:09;;;;;;;46.97;26.63;;;;;;;20.33;71.88;102553.84;6188322;23;20017;-77
2021/09/07 08:16:34;;;;;;;40.00;26.35;;;;;;;20.52;70.62;102552.09;6188569;23;20041;-76
2021/09/07 08:19:00;;;;;;;38.85;25.25;;;;;;;20.77;68.14;102540.56;6187719;23;20052;-75
2021/09/07 08:21:26;;;;;;;41.58;25.17;;;;;;;21.03;66.32;102535.25;6187776;23;20084;-77
2021/09/07 08:23:52;;;;;;;36.75;24.92;;;;;;;21.31;67.95;102540.56;6187592;23;20083;-77
2021/09/07 08:26:17;;;;;;;36.15;25.00;;;;;;;21.51;68.47;102549.50;6187092;23;20009;-78
2021/09/07 08:29:03;;;;;;;31.52;20.98;;;;;;;21.76;59.59;102521.75;6188064;23;20005;-76
2021/09/07 08:31:48;;;;;;;35.85;22.42;;;;;;;21.95;59.93;102519.88;6187777;23;20096;-77
2021/09/07 08:34:14;;;;;;;31.73;22.38;;;;;;;22.10;59.60;102521.59;6187466;23;20381;-77
2021/09/07 08:36:59;;;;;;;31.80;21.73;;;;;;;22.22;60.97;102533.19;6187709;23;20088;-77
2021/09/07 08:39:24;;;;;;;30.25;20.08;;;;;;;22.43;58.62;102515.22;6187765;23;20504;-77
2021/09/07 08:41:50;;;;;;;30.65;20.67;;;;;;;22.58;57.01;102507.97;6188399;23;20055;-77
2021/09/07 08:44:44;;;;;;;31.88;19.80;;;;;;;22.71;56.96;102509.66;6186677;23;20013;-77
2021/09/07 08:47:31;;;;;;;30.95;20.13;;;;;;;22.89;56.17;102511.31;6186477;23;20009;-75
2021/09/07 08:49:56;;;;;;;33.33;21.27;;;;;;;23.12;55.63;102504.84;6185663;23;20036;-77
2021/09/07 08:52:43;;;;;;;31.10;20.05;;;;;;;23.43;60.50;102532.31;6185343;23;20028;-76
2021/09/07 08:55:09;;;;;;;26.60;19.17;;;;;;;23.78;53.31;102509.53;6186313;23;20023;-78
2021/09/07 08:57:34;;;;;;;27.75;20.80;;;;;;;23.94;52.33;102512.06;6185885;23;20009;-77
2021/09/07 09:00:02;;;;;;;26.67;19.05;;;;;;;23.99;51.42;102513.78;6186412;23;20015;-78
2021/09/07 09:02:27;;;;;;;34.42;19.88;;;;;;;24.09;52.27;102509.16;6181387;23;20035;-76
2021/09/07 09:05:13;;;;;;;39.17;21.42;;;;;;;23.95;54.11;102519.22;6185900;23;20484;-77
2021/09/07 09:07:38;;;;;;;37.28;22.33;;;;;;;23.76;56.19;102524.78;6186507;23;20005;-78
2021/09/07 09:10:04;;;;;;;34.05;22.05;;;;;;;23.78;55.38;102528.38;6185785;23;20024;-78
2021/09/07 09:13:06;;;;;;;28.85;20.55;;;;;;;23.81;53.15;102512.19;6185511;23;20032;-77
2021/09/07 09:15:32;;;;;;;30.02;20.20;;;;;;;23.99;55.75;102527.22;6185868;23;20005;-75
2021/09/07 09:18:12;;;;;;;27.80;18.05;;;;;;;24.33;52.59;102516.00;6185924;23;20007;-76
2021/09/07 09:20:39;;;;;;;27.00;18.35;;;;;;;24.58;50.71;102507.59;6186168;23;20021;-76
2021/09/07 09:23:07;;;;;;;30.88;19.42;;;;;;;25.00;52.43;102523.06;6160055;23;20019;-76
2021/09/07 09:25:35;;;;;;;31.23;19.73;;;;;;;25.11;48.92;102499.53;6185948;23;20005;-77
2021/09/07 09:28:23;;;;;;;32.13;20.98;;;;;;;25.53;49.24;102505.06;6185828;23;20001;-77
2021/09/07 09:30:56;;;;;;;28.67;19.48;;;;;;;25.76;48.11;102484.84;6186630;23;20017;-76
2021/09/07 09:33:23;;;;;;;;;;;;;;;26.03;47.79;102490.56;6186967;23;20063;-77
2021/09/07 09:36:00;;;;;;;28.77;19.65;;;;;;;26.47;44.95;102485.09;6186198;23;19904;-77
2021/09/07 09:38:29;;;;;;;28.40;19.15;;;;;;;27.08;43.33;102488.06;6159784;23;20076;-76
2021/09/07 09:41:04;;;;;;;30.00;19.88;;;;;;;27.75;42.77;102484.41;6186274;23;20017;-77
2021/09/07 09:43:38;;;;;;;30.50;19.48;;;;;;;28.54;39.53;102479.25;6185991;23;20013;-77
2021/09/07 09:46:23;;;;;;;28.50;19.27;;;;;;;29.00;38.46;102479.56;6186258;23;20080;-75
2021/09/07 09:48:50;;;;;;;25.50;19.30;;;;;;;29.85;36.71;102471.94;6160339;23;20016;-76
2021/09/07 09:51:18;;;;;;;27.77;19.83;;;;;;;30.10;35.29;102465.53;6185964;23;20013;-76
2021/09/07 09:53:48;;;;;;;24.55;18.48;;;;;;;30.74;36.46;102467.44;6185702;23;20001;-77
2021/09/07 09:56:14;;;;;;;24.30;19.10;;;;;;;30.90;33.73;102462.22;6186049;23;20024;-76
2021/09/07 09:58:41;;;;;;;26.30;18.85;;;;;;;30.90;33.46;102456.78;6185930;23;20001;-76
2021/09/07 10:01:06;;;;;;;26.05;18.90;;;;;;;31.52;32.72;102459.47;6180916;23;20047;-78
2021/09/07 10:03:33;;;;;;;20.77;16.30;;;;;;;32.01;31.20;102449.94;6185761;23;20428;-77
2021/09/07 10:05:59;;;;;;;25.13;18.15;;;;;;;32.19;30.29;102446.34;6185208;23;20444;-76
2021/09/07 10:08:45;;;;;;;29.48;19.90;;;;;;;31.88;31.28;102445.09;6184527;23;20450;-75
2021/09/07 10:11:13;;;;;;;24.63;18.75;;;;;;;31.90;31.17;102453.19;6184077;23;20008;-76
2021/09/07 10:13:44;;;;;;;28.75;18.88;;;;;;;32.02;31.58;102454.44;6184429;23;20001;-77
2021/09/07 10:16:16;;;;;;;23.55;17.40;;;;;;;31.91;32.38;102450.38;6184490;23;20132;-76
2021/09/07 10:23:02;;;;;;;28.83;17.25;;;;;;;32.45;30.76;102445.03;6185339;23;20146;-76
2021/09/07 10:26:42;;;;;;;26.20;19.17;;;;;;;32.73;31.15;102448.19;6195938;23;20012;-76
2021/09/07 10:29:11;;;;;;;22.52;18.73;;;;;;;33.20;29.80;102436.59;6185508;23;20080;-77
2021/09/07 10:31:49;;;;;;;23.73;19.52;;;;;;;32.80;31.13;102438.72;6185767;23;20067;-75
2021/09/07 10:34:23;;;;;;;28.15;18.95;;;;;;;33.27;28.45;102443.50;6185135;23;20345;-77
2021/09/07 10:37:07;;;;;;;26.27;18.17;;;;;;;33.53;28.30;102443.06;6185688;23;20332;-76
2021/09/07 10:39:33;;;;;;;21.88;16.90;;;;;;;33.53;30.15;102443.94;6184683;23;20024;-75
2021/09/07 10:42:01;;;;;;;17.90;16.00;;;;;;;33.98;30.69;102448.75;6185065;23;20329;-76
2021/09/07 10:44:29;;;;;;;20.90;14.88;;;;;;;33.76;29.55;102434.44;6185141;23;20009;-77
2021/09/07 10:46:57;;;;;;;25.30;18.88;;;;;;;33.89;27.50;102425.59;6185478;23;20072;-76
2021/09/07 10:49:26;;;;;;;22.15;17.27;;;;;;;33.93;28.30;102425.31;6185308;23;20113;-77
2021/09/07 10:52:10;;;;;;;23.25;18.35;;;;;;;33.73;30.06;102422.84;6185537;23;20336;-76
2021/09/07 10:54:52;;;;;;;26.13;18.38;;;;;;;33.99;27.44;102409.56;6185089;23;20016;-77
2021/09/07 10:57:33;;;;;;;24.77;17.30;;;;;;;32.99;29.30;102407.78;6184772;23;20005;-77
2021/09/07 11:00:06;;;;;;;18.75;16.08;;;;;;;33.45;30.29;102418.91;6184903;23;20327;-76
2021/09/07 11:02:52;;;;;;;19.45;17.00;;;;;;;34.27;27.47;102412.41;6184915;23;20063;-78
2021/09/07 11:05:23;;;;;;;21.42;16.42;;;;;;;34.11;27.63;102406.97;6184170;23;20494;-78
2021/09/07 11:07:51;;;;;;;20.13;15.40;;;;;;;33.83;28.81;102417.75;6183622;23;20008;-77
2021/09/07 11:10:17;;;;;;;20.63;15.90;;;;;;;34.01;29.70;102416.69;6184341;23;20017;-78
2021/09/07 11:12:51;;;;;;;18.45;16.48;;;;;;;32.49;28.95;102398.53;6185357;23;20336;-76
2021/09/07 11:15:25;;;;;;;17.92;14.80;;;;;;;32.49;29.85;102402.16;6184718;23;20013;-75
2021/09/07 11:17:56;;;;;;;18.45;13.90;;;;;;;33.20;29.75;102412.06;6185090;23;20005;-76
2021/09/07 11:20:30;;;;;;;19.70;15.68;;;;;;;33.35;27.71;102398.59;6184303;23;20019;-77
2021/09/07 11:23:00;;;;;;;22.88;16.80;;;;;;;33.15;29.93;102400.50;6185182;23;20005;-77